Terminal Aerodrome Forecast
Issued by NWS

Home | Current Version | Previous Version | Text Only | Print | Product List | Glossary On
Versions: 1 2 3 4 5 6 7 8 9 10 11 12 13 14 15 16 17
613
FTUS45 KRIW 251512 AAA
TAFCOD
TAF AMD
KCOD 251512Z 2515/2612 02012G18KT P6SM SCT120 BKN200
     FM251900 02012G18KT P6SM VCSH SCT060 BKN100
     FM252100 21012G22KT P6SM VCTS SCT050CB BKN080
     FM260100 27008KT P6SM VCSH BKN070
      AMD LTD TO CLD VIS AND WIND=

USA.gov is the U.S. government's official web portal to all federal, state and local government web resources and services.